sensor_id;sensor_type;location;lat;lon;timestamp;P1;durP1;ratioP1;P2;durP2;ratioP2
12135;SDS011;6131;56.420;15.548;2023-12-07T00:01:40;16.17;;;10.57;;
12135;SDS011;6131;56.420;15.548;2023-12-07T00:04:06;17.03;;;11.03;;
12135;SDS011;6131;56.420;15.548;2023-12-07T00:06:32;17.83;;;10.60;;
12135;SDS011;6131;56.420;15.548;2023-12-07T00:08:58;16.73;;;10.37;;
12135;SDS011;6131;56.420;15.548;2023-12-07T00:11:26;16.93;;;11.30;;
12135;SDS011;6131;56.420;15.548;2023-12-07T00:13:52;17.63;;;10.90;;
12135;SDS011;6131;56.420;15.548;2023-12-07T00:16:18;17.73;;;10.87;;
12135;SDS011;6131;56.420;15.548;2023-12-07T00:18:44;18.50;;;10.83;;
12135;SDS011;6131;56.420;15.548;2023-12-07T00:21:10;18.63;;;11.43;;
12135;SDS011;6131;56.420;15.548;2023-12-07T00:23:36;16.43;;;10.90;;
12135;SDS011;6131;56.420;15.548;2023-12-07T00:26:03;21.30;;;11.40;;
12135;SDS011;6131;56.420;15.548;2023-12-07T00:28:29;17.00;;;10.83;;
12135;SDS011;6131;56.420;15.548;2023-12-07T00:30:55;17.20;;;11.30;;
12135;SDS011;6131;56.420;15.548;2023-12-07T00:33:21;17.13;;;10.70;;
12135;SDS011;6131;56.420;15.548;2023-12-07T00:35:47;15.57;;;11.20;;
12135;SDS011;6131;56.420;15.548;2023-12-07T00:38:13;17.63;;;11.57;;
12135;SDS011;6131;56.420;15.548;2023-12-07T00:40:39;19.60;;;12.30;;
12135;SDS011;6131;56.420;15.548;2023-12-07T00:43:06;15.80;;;10.47;;
12135;SDS011;6131;56.420;15.548;2023-12-07T00:45:32;15.20;;;10.67;;
12135;SDS011;6131;56.420;15.548;2023-12-07T00:47:59;15.77;;;10.93;;
12135;SDS011;6131;56.420;15.548;2023-12-07T00:50:25;19.47;;;11.70;;
12135;SDS011;6131;56.420;15.548;2023-12-07T00:52:51;20.03;;;12.30;;
12135;SDS011;6131;56.420;15.548;2023-12-07T00:55:17;18.33;;;11.03;;
12135;SDS011;6131;56.420;15.548;2023-12-07T00:57:43;17.77;;;12.03;;
12135;SDS011;6131;56.420;15.548;2023-12-07T01:00:09;18.93;;;11.23;;
12135;SDS011;6131;56.420;15.548;2023-12-07T01:02:36;17.43;;;11.07;;
12135;SDS011;6131;56.420;15.548;2023-12-07T01:05:02;21.07;;;11.17;;
12135;SDS011;6131;56.420;15.548;2023-12-07T01:07:28;19.37;;;12.47;;
12135;SDS011;6131;56.420;15.548;2023-12-07T01:09:54;20.20;;;12.07;;
12135;SDS011;6131;56.420;15.548;2023-12-07T01:12:20;18.87;;;11.30;;
12135;SDS011;6131;56.420;15.548;2023-12-07T01:14:46;19.83;;;11.87;;
12135;SDS011;6131;56.420;15.548;2023-12-07T01:17:12;18.30;;;12.07;;
12135;SDS011;6131;56.420;15.548;2023-12-07T01:19:38;18.40;;;11.63;;
12135;SDS011;6131;56.420;15.548;2023-12-07T01:22:04;17.43;;;11.17;;
12135;SDS011;6131;56.420;15.548;2023-12-07T01:24:30;20.27;;;11.87;;
12135;SDS011;6131;56.420;15.548;2023-12-07T01:26:56;22.30;;;13.07;;
12135;SDS011;6131;56.420;15.548;2023-12-07T01:29:22;20.00;;;12.40;;
12135;SDS011;6131;56.420;15.548;2023-12-07T01:31:48;18.80;;;11.90;;
12135;SDS011;6131;56.420;15.548;2023-12-07T01:34:14;19.70;;;11.73;;
12135;SDS011;6131;56.420;15.548;2023-12-07T01:36:40;21.20;;;12.23;;
12135;SDS011;6131;56.420;15.548;2023-12-07T01:39:06;22.03;;;11.53;;
12135;SDS011;6131;56.420;15.548;2023-12-07T01:41:36;21.00;;;12.73;;
12135;SDS011;6131;56.420;15.548;2023-12-07T01:44:02;20.70;;;12.30;;
12135;SDS011;6131;56.420;15.548;2023-12-07T01:46:28;18.30;;;12.20;;
12135;SDS011;6131;56.420;15.548;2023-12-07T01:48:54;20.27;;;12.03;;
12135;SDS011;6131;56.420;15.548;2023-12-07T01:51:20;20.63;;;13.10;;
12135;SDS011;6131;56.420;15.548;2023-12-07T01:53:47;17.70;;;12.10;;
12135;SDS011;6131;56.420;15.548;2023-12-07T01:56:14;19.13;;;11.87;;
12135;SDS011;6131;56.420;15.548;2023-12-07T01:58:41;19.47;;;12.27;;
12135;SDS011;6131;56.420;15.548;2023-12-07T02:01:07;20.70;;;13.03;;
12135;SDS011;6131;56.420;15.548;2023-12-07T02:03:34;19.77;;;12.63;;
12135;SDS011;6131;56.420;15.548;2023-12-07T02:06:00;19.50;;;12.27;;
12135;SDS011;6131;56.420;15.548;2023-12-07T02:08:27;23.23;;;13.80;;
12135;SDS011;6131;56.420;15.548;2023-12-07T02:10:53;23.80;;;13.50;;
12135;SDS011;6131;56.420;15.548;2023-12-07T02:13:20;25.23;;;13.37;;
12135;SDS011;6131;56.420;15.548;2023-12-07T02:15:46;22.77;;;13.37;;
12135;SDS011;6131;56.420;15.548;2023-12-07T02:18:55;22.43;;;13.27;;
12135;SDS011;6131;56.420;15.548;2023-12-07T02:23:28;22.13;;;13.23;;
12135;SDS011;6131;56.420;15.548;2023-12-07T02:28:39;22.73;;;13.23;;
12135;SDS011;6131;56.420;15.548;2023-12-07T02:31:05;24.27;;;14.23;;
12135;SDS011;6131;56.420;15.548;2023-12-07T02:33:31;25.03;;;14.27;;
12135;SDS011;6131;56.420;15.548;2023-12-07T02:35:57;27.73;;;15.63;;
12135;SDS011;6131;56.420;15.548;2023-12-07T02:38:24;24.30;;;14.13;;
12135;SDS011;6131;56.420;15.548;2023-12-07T02:40:52;24.00;;;14.40;;
12135;SDS011;6131;56.420;15.548;2023-12-07T02:43:18;25.77;;;15.00;;
12135;SDS011;6131;56.420;15.548;2023-12-07T02:45:45;23.07;;;14.80;;
12135;SDS011;6131;56.420;15.548;2023-12-07T02:48:12;23.73;;;14.63;;
12135;SDS011;6131;56.420;15.548;2023-12-07T02:50:38;27.27;;;14.50;;
12135;SDS011;6131;56.420;15.548;2023-12-07T02:53:04;26.13;;;15.47;;
12135;SDS011;6131;56.420;15.548;2023-12-07T02:55:30;27.47;;;14.93;;
12135;SDS011;6131;56.420;15.548;2023-12-07T02:57:55;24.87;;;14.97;;
12135;SDS011;6131;56.420;15.548;2023-12-07T03:00:21;27.03;;;15.57;;
12135;SDS011;6131;56.420;15.548;2023-12-07T03:02:47;25.23;;;15.37;;
12135;SDS011;6131;56.420;15.548;2023-12-07T03:05:15;25.73;;;15.50;;
12135;SDS011;6131;56.420;15.548;2023-12-07T03:07:41;24.83;;;15.23;;
12135;SDS011;6131;56.420;15.548;2023-12-07T03:10:07;27.43;;;15.60;;
12135;SDS011;6131;56.420;15.548;2023-12-07T03:12:33;28.73;;;15.93;;
12135;SDS011;6131;56.420;15.548;2023-12-07T03:14:59;28.57;;;16.07;;
12135;SDS011;6131;56.420;15.548;2023-12-07T03:17:25;28.77;;;16.70;;
12135;SDS011;6131;56.420;15.548;2023-12-07T03:19:51;27.17;;;16.17;;
12135;SDS011;6131;56.420;15.548;2023-12-07T03:22:17;31.17;;;16.70;;
12135;SDS011;6131;56.420;15.548;2023-12-07T03:24:45;29.37;;;16.40;;
12135;SDS011;6131;56.420;15.548;2023-12-07T03:27:11;31.60;;;16.83;;
12135;SDS011;6131;56.420;15.548;2023-12-07T03:29:37;26.47;;;16.10;;
12135;SDS011;6131;56.420;15.548;2023-12-07T03:32:03;30.67;;;16.60;;
12135;SDS011;6131;56.420;15.548;2023-12-07T03:34:29;28.23;;;16.17;;
12135;SDS011;6131;56.420;15.548;2023-12-07T03:36:55;30.73;;;17.03;;
12135;SDS011;6131;56.420;15.548;2023-12-07T03:39:21;29.20;;;16.77;;
12135;SDS011;6131;56.420;15.548;2023-12-07T03:41:48;32.93;;;16.77;;
12135;SDS011;6131;56.420;15.548;2023-12-07T03:44:14;27.73;;;16.53;;
12135;SDS011;6131;56.420;15.548;2023-12-07T03:46:41;32.27;;;16.73;;
12135;SDS011;6131;56.420;15.548;2023-12-07T03:49:07;29.53;;;15.70;;
12135;SDS011;6131;56.420;15.548;2023-12-07T03:51:33;33.30;;;18.20;;
12135;SDS011;6131;56.420;15.548;2023-12-07T03:54:01;29.47;;;16.50;;
12135;SDS011;6131;56.420;15.548;2023-12-07T03:56:28;28.93;;;16.10;;
12135;SDS011;6131;56.420;15.548;2023-12-07T03:58:54;30.00;;;16.63;;
12135;SDS011;6131;56.420;15.548;2023-12-07T04:01:27;26.77;;;15.60;;
12135;SDS011;6131;56.420;15.548;2023-12-07T04:03:54;28.10;;;15.80;;
12135;SDS011;6131;56.420;15.548;2023-12-07T04:06:20;32.23;;;16.80;;
12135;SDS011;6131;56.420;15.548;2023-12-07T04:08:47;28.87;;;16.47;;
12135;SDS011;6131;56.420;15.548;2023-12-07T04:11:13;32.50;;;16.67;;
12135;SDS011;6131;56.420;15.548;2023-12-07T04:13:40;28.97;;;16.73;;
12135;SDS011;6131;56.420;15.548;2023-12-07T04:16:06;31.83;;;17.33;;
12135;SDS011;6131;56.420;15.548;2023-12-07T04:18:32;30.17;;;16.80;;
12135;SDS011;6131;56.420;15.548;2023-12-07T04:20:58;31.50;;;16.80;;
12135;SDS011;6131;56.420;15.548;2023-12-07T04:23:24;29.97;;;16.17;;
12135;SDS011;6131;56.420;15.548;2023-12-07T04:25:50;29.70;;;17.00;;
12135;SDS011;6131;56.420;15.548;2023-12-07T04:28:16;26.33;;;16.47;;
12135;SDS011;6131;56.420;15.548;2023-12-07T04:30:42;29.50;;;16.20;;
12135;SDS011;6131;56.420;15.548;2023-12-07T04:33:08;27.97;;;15.97;;
12135;SDS011;6131;56.420;15.548;2023-12-07T04:35:35;30.80;;;16.00;;
12135;SDS011;6131;56.420;15.548;2023-12-07T04:38:01;28.27;;;14.43;;
12135;SDS011;6131;56.420;15.548;2023-12-07T04:40:27;26.17;;;14.43;;
12135;SDS011;6131;56.420;15.548;2023-12-07T04:42:53;22.10;;;14.17;;
12135;SDS011;6131;56.420;15.548;2023-12-07T04:45:19;25.17;;;14.60;;
12135;SDS011;6131;56.420;15.548;2023-12-07T04:47:45;22.40;;;13.97;;
12135;SDS011;6131;56.420;15.548;2023-12-07T04:50:11;26.37;;;14.13;;
12135;SDS011;6131;56.420;15.548;2023-12-07T04:52:37;27.67;;;15.00;;
12135;SDS011;6131;56.420;15.548;2023-12-07T04:55:04;23.53;;;13.80;;
12135;SDS011;6131;56.420;15.548;2023-12-07T04:57:31;19.97;;;12.87;;
12135;SDS011;6131;56.420;15.548;2023-12-07T04:59:57;19.70;;;12.20;;
12135;SDS011;6131;56.420;15.548;2023-12-07T05:02:23;21.57;;;11.23;;
12135;SDS011;6131;56.420;15.548;2023-12-07T05:04:49;16.20;;;11.00;;
12135;SDS011;6131;56.420;15.548;2023-12-07T05:07:15;16.47;;;11.57;;
12135;SDS011;6131;56.420;15.548;2023-12-07T05:09:42;16.10;;;10.13;;
12135;SDS011;6131;56.420;15.548;2023-12-07T05:12:08;17.33;;;10.30;;
12135;SDS011;6131;56.420;15.548;2023-12-07T05:14:34;17.80;;;10.03;;
12135;SDS011;6131;56.420;15.548;2023-12-07T05:17:00;14.93;;;9.73;;
12135;SDS011;6131;56.420;15.548;2023-12-07T05:19:27;16.63;;;10.33;;
12135;SDS011;6131;56.420;15.548;2023-12-07T05:21:53;13.97;;;9.47;;
12135;SDS011;6131;56.420;15.548;2023-12-07T05:24:20;12.27;;;8.50;;
12135;SDS011;6131;56.420;15.548;2023-12-07T05:26:46;9.80;;;7.20;;
12135;SDS011;6131;56.420;15.548;2023-12-07T05:29:12;12.00;;;8.50;;
12135;SDS011;6131;56.420;15.548;2023-12-07T05:31:39;12.87;;;8.13;;
12135;SDS011;6131;56.420;15.548;2023-12-07T05:34:05;10.30;;;7.57;;
12135;SDS011;6131;56.420;15.548;2023-12-07T05:36:31;13.03;;;8.37;;
12135;SDS011;6131;56.420;15.548;2023-12-07T05:38:57;12.57;;;7.90;;
12135;SDS011;6131;56.420;15.548;2023-12-07T05:41:23;10.90;;;7.30;;
12135;SDS011;6131;56.420;15.548;2023-12-07T05:43:50;10.67;;;7.63;;
12135;SDS011;6131;56.420;15.548;2023-12-07T05:46:17;10.80;;;7.53;;
12135;SDS011;6131;56.420;15.548;2023-12-07T05:48:43;11.77;;;8.37;;
12135;SDS011;6131;56.420;15.548;2023-12-07T05:51:13;10.63;;;7.23;;
12135;SDS011;6131;56.420;15.548;2023-12-07T05:53:39;11.30;;;7.77;;
12135;SDS011;6131;56.420;15.548;2023-12-07T05:56:05;11.63;;;7.10;;
12135;SDS011;6131;56.420;15.548;2023-12-07T05:58:31;9.63;;;6.93;;
12135;SDS011;6131;56.420;15.548;2023-12-07T06:00:57;9.03;;;6.27;;
12135;SDS011;6131;56.420;15.548;2023-12-07T06:03:24;8.33;;;6.67;;
12135;SDS011;6131;56.420;15.548;2023-12-07T06:05:51;12.70;;;7.90;;
12135;SDS011;6131;56.420;15.548;2023-12-07T06:08:17;9.57;;;6.73;;
12135;SDS011;6131;56.420;15.548;2023-12-07T06:10:43;10.80;;;6.73;;
12135;SDS011;6131;56.420;15.548;2023-12-07T06:13:09;8.57;;;6.20;;
12135;SDS011;6131;56.420;15.548;2023-12-07T06:15:35;8.60;;;6.23;;
12135;SDS011;6131;56.420;15.548;2023-12-07T06:18:01;8.90;;;7.00;;
12135;SDS011;6131;56.420;15.548;2023-12-07T06:20:28;8.77;;;6.43;;
12135;SDS011;6131;56.420;15.548;2023-12-07T06:22:54;10.33;;;7.13;;
12135;SDS011;6131;56.420;15.548;2023-12-07T06:25:20;9.07;;;6.63;;
12135;SDS011;6131;56.420;15.548;2023-12-07T06:27:46;8.23;;;6.10;;
12135;SDS011;6131;56.420;15.548;2023-12-07T06:30:12;9.03;;;6.43;;
12135;SDS011;6131;56.420;15.548;2023-12-07T06:32:38;8.40;;;5.93;;
12135;SDS011;6131;56.420;15.548;2023-12-07T06:35:05;9.97;;;6.60;;
12135;SDS011;6131;56.420;15.548;2023-12-07T06:37:31;9.33;;;6.90;;
12135;SDS011;6131;56.420;15.548;2023-12-07T06:39:57;9.27;;;6.80;;
12135;SDS011;6131;56.420;15.548;2023-12-07T06:42:25;11.87;;;6.83;;
12135;SDS011;6131;56.420;15.548;2023-12-07T06:44:51;9.70;;;6.80;;
12135;SDS011;6131;56.420;15.548;2023-12-07T06:47:17;13.13;;;11.40;;
12135;SDS011;6131;56.420;15.548;2023-12-07T06:49:43;10.90;;;8.33;;
12135;SDS011;6131;56.420;15.548;2023-12-07T06:52:10;10.93;;;6.80;;
12135;SDS011;6131;56.420;15.548;2023-12-07T06:54:37;10.17;;;7.00;;
12135;SDS011;6131;56.420;15.548;2023-12-07T06:57:03;10.77;;;7.77;;
12135;SDS011;6131;56.420;15.548;2023-12-07T06:59:31;8.97;;;6.43;;
12135;SDS011;6131;56.420;15.548;2023-12-07T07:01:57;12.73;;;8.00;;
12135;SDS011;6131;56.420;15.548;2023-12-07T07:04:23;10.57;;;8.13;;
12135;SDS011;6131;56.420;15.548;2023-12-07T07:06:49;10.57;;;7.60;;
12135;SDS011;6131;56.420;15.548;2023-12-07T07:09:16;10.53;;;7.53;;
12135;SDS011;6131;56.420;15.548;2023-12-07T07:11:46;12.77;;;8.33;;
12135;SDS011;6131;56.420;15.548;2023-12-07T07:14:12;10.77;;;7.17;;
12135;SDS011;6131;56.420;15.548;2023-12-07T07:16:38;10.70;;;7.70;;
12135;SDS011;6131;56.420;15.548;2023-12-07T07:19:04;12.40;;;7.57;;
12135;SDS011;6131;56.420;15.548;2023-12-07T07:21:31;10.67;;;7.20;;
12135;SDS011;6131;56.420;15.548;2023-12-07T07:23:57;11.03;;;7.57;;
12135;SDS011;6131;56.420;15.548;2023-12-07T07:26:23;11.43;;;7.40;;
12135;SDS011;6131;56.420;15.548;2023-12-07T07:28:50;11.23;;;7.50;;
12135;SDS011;6131;56.420;15.548;2023-12-07T07:31:16;12.00;;;7.53;;
12135;SDS011;6131;56.420;15.548;2023-12-07T07:33:43;11.80;;;7.37;;
12135;SDS011;6131;56.420;15.548;2023-12-07T07:36:09;12.13;;;7.43;;
12135;SDS011;6131;56.420;15.548;2023-12-07T07:38:36;10.87;;;7.17;;
12135;SDS011;6131;56.420;15.548;2023-12-07T07:41:02;9.27;;;7.37;;
12135;SDS011;6131;56.420;15.548;2023-12-07T07:43:28;8.73;;;6.70;;
12135;SDS011;6131;56.420;15.548;2023-12-07T07:45:54;10.97;;;7.60;;
12135;SDS011;6131;56.420;15.548;2023-12-07T07:48:21;10.40;;;7.77;;
12135;SDS011;6131;56.420;15.548;2023-12-07T07:50:47;9.67;;;7.07;;
12135;SDS011;6131;56.420;15.548;2023-12-07T07:53:13;8.40;;;6.70;;
12135;SDS011;6131;56.420;15.548;2023-12-07T07:55:39;10.40;;;6.93;;
12135;SDS011;6131;56.420;15.548;2023-12-07T07:58:05;11.00;;;7.37;;
12135;SDS011;6131;56.420;15.548;2023-12-07T08:00:31;9.57;;;6.87;;
12135;SDS011;6131;56.420;15.548;2023-12-07T08:02:58;10.83;;;7.47;;
12135;SDS011;6131;56.420;15.548;2023-12-07T08:05:24;10.63;;;6.47;;
12135;SDS011;6131;56.420;15.548;2023-12-07T08:07:50;10.53;;;6.90;;
12135;SDS011;6131;56.420;15.548;2023-12-07T08:10:16;11.07;;;6.93;;
12135;SDS011;6131;56.420;15.548;2023-12-07T08:12:42;10.70;;;7.13;;
12135;SDS011;6131;56.420;15.548;2023-12-07T08:15:12;9.37;;;6.73;;
12135;SDS011;6131;56.420;15.548;2023-12-07T08:17:39;11.33;;;7.47;;
12135;SDS011;6131;56.420;15.548;2023-12-07T08:20:06;9.97;;;6.73;;
12135;SDS011;6131;56.420;15.548;2023-12-07T08:22:32;10.03;;;7.10;;
12135;SDS011;6131;56.420;15.548;2023-12-07T08:24:58;9.40;;;7.07;;
12135;SDS011;6131;56.420;15.548;2023-12-07T08:27:25;9.00;;;7.10;;
12135;SDS011;6131;56.420;15.548;2023-12-07T08:29:51;11.60;;;7.70;;
12135;SDS011;6131;56.420;15.548;2023-12-07T08:32:17;12.10;;;7.03;;
12135;SDS011;6131;56.420;15.548;2023-12-07T08:34:44;8.77;;;6.33;;
12135;SDS011;6131;56.420;15.548;2023-12-07T08:37:10;9.40;;;6.50;;
12135;SDS011;6131;56.420;15.548;2023-12-07T08:39:36;9.87;;;6.60;;
12135;SDS011;6131;56.420;15.548;2023-12-07T08:42:03;8.33;;;6.20;;
12135;SDS011;6131;56.420;15.548;2023-12-07T08:44:29;8.57;;;6.30;;
12135;SDS011;6131;56.420;15.548;2023-12-07T08:46:55;10.70;;;7.10;;
12135;SDS011;6131;56.420;15.548;2023-12-07T08:49:21;9.63;;;6.83;;
12135;SDS011;6131;56.420;15.548;2023-12-07T08:51:47;9.07;;;6.40;;
12135;SDS011;6131;56.420;15.548;2023-12-07T08:54:13;8.03;;;6.33;;
12135;SDS011;6131;56.420;15.548;2023-12-07T08:56:39;9.23;;;6.63;;
12135;SDS011;6131;56.420;15.548;2023-12-07T08:59:05;10.00;;;6.80;;
12135;SDS011;6131;56.420;15.548;2023-12-07T09:01:31;8.60;;;6.57;;
12135;SDS011;6131;56.420;15.548;2023-12-07T09:03:58;9.10;;;6.00;;
12135;SDS011;6131;56.420;15.548;2023-12-07T09:06:24;9.23;;;6.63;;
12135;SDS011;6131;56.420;15.548;2023-12-07T09:08:50;8.53;;;6.13;;
12135;SDS011;6131;56.420;15.548;2023-12-07T09:11:16;8.90;;;5.77;;
12135;SDS011;6131;56.420;15.548;2023-12-07T09:13:42;9.20;;;5.80;;
12135;SDS011;6131;56.420;15.548;2023-12-07T09:16:08;9.43;;;6.33;;
12135;SDS011;6131;56.420;15.548;2023-12-07T09:18:34;7.67;;;5.57;;
12135;SDS011;6131;56.420;15.548;2023-12-07T09:21:03;7.53;;;5.47;;
12135;SDS011;6131;56.420;15.548;2023-12-07T09:23:29;8.13;;;5.67;;
12135;SDS011;6131;56.420;15.548;2023-12-07T09:25:55;9.07;;;6.30;;
12135;SDS011;6131;56.420;15.548;2023-12-07T09:28:21;8.77;;;6.03;;
12135;SDS011;6131;56.420;15.548;2023-12-07T09:30:47;8.50;;;6.13;;
12135;SDS011;6131;56.420;15.548;2023-12-07T09:33:13;9.17;;;5.97;;
12135;SDS011;6131;56.420;15.548;2023-12-07T09:35:39;7.30;;;5.20;;
12135;SDS011;6131;56.420;15.548;2023-12-07T09:38:05;8.30;;;6.00;;
12135;SDS011;6131;56.420;15.548;2023-12-07T09:40:32;7.83;;;5.63;;
12135;SDS011;6131;56.420;15.548;2023-12-07T09:42:58;6.73;;;5.50;;
12135;SDS011;6131;56.420;15.548;2023-12-07T09:45:24;6.87;;;5.30;;
12135;SDS011;6131;56.420;15.548;2023-12-07T09:47:53;6.93;;;5.20;;
12135;SDS011;6131;56.420;15.548;2023-12-07T09:50:21;7.23;;;5.13;;
12135;SDS011;6131;56.420;15.548;2023-12-07T09:52:51;7.33;;;5.13;;
12135;SDS011;6131;56.420;15.548;2023-12-07T09:55:17;5.57;;;4.43;;
12135;SDS011;6131;56.420;15.548;2023-12-07T09:57:43;5.77;;;4.70;;
12135;SDS011;6131;56.420;15.548;2023-12-07T10:00:13;6.57;;;4.77;;
12135;SDS011;6131;56.420;15.548;2023-12-07T10:02:40;6.47;;;5.13;;
12135;SDS011;6131;56.420;15.548;2023-12-07T10:05:09;8.33;;;5.23;;
12135;SDS011;6131;56.420;15.548;2023-12-07T10:07:37;7.07;;;4.93;;
12135;SDS011;6131;56.420;15.548;2023-12-07T10:10:03;6.53;;;4.70;;
12135;SDS011;6131;56.420;15.548;2023-12-07T10:12:30;6.70;;;4.83;;
12135;SDS011;6131;56.420;15.548;2023-12-07T10:14:58;6.83;;;4.77;;
12135;SDS011;6131;56.420;15.548;2023-12-07T10:17:26;5.43;;;4.17;;
12135;SDS011;6131;56.420;15.548;2023-12-07T10:20:08;5.67;;;4.47;;
12135;SDS011;6131;56.420;15.548;2023-12-07T10:22:35;6.57;;;4.97;;
12135;SDS011;6131;56.420;15.548;2023-12-07T10:25:01;6.63;;;5.00;;
12135;SDS011;6131;56.420;15.548;2023-12-07T10:27:27;7.37;;;4.73;;
12135;SDS011;6131;56.420;15.548;2023-12-07T10:29:53;5.93;;;4.40;;
12135;SDS011;6131;56.420;15.548;2023-12-07T10:32:21;5.57;;;4.47;;
12135;SDS011;6131;56.420;15.548;2023-12-07T10:34:47;6.00;;;4.53;;
12135;SDS011;6131;56.420;15.548;2023-12-07T10:37:13;6.07;;;4.80;;
12135;SDS011;6131;56.420;15.548;2023-12-07T10:39:39;5.93;;;4.90;;
12135;SDS011;6131;56.420;15.548;2023-12-07T10:42:06;6.13;;;4.63;;
12135;SDS011;6131;56.420;15.548;2023-12-07T10:44:36;4.87;;;4.17;;
12135;SDS011;6131;56.420;15.548;2023-12-07T10:47:05;6.30;;;4.33;;
12135;SDS011;6131;56.420;15.548;2023-12-07T10:49:31;5.20;;;4.10;;
12135;SDS011;6131;56.420;15.548;2023-12-07T10:52:00;5.60;;;4.37;;
12135;SDS011;6131;56.420;15.548;2023-12-07T10:57:08;6.00;;;4.80;;
12135;SDS011;6131;56.420;15.548;2023-12-07T10:59:34;6.53;;;4.80;;
12135;SDS011;6131;56.420;15.548;2023-12-07T11:02:01;6.60;;;4.73;;
12135;SDS011;6131;56.420;15.548;2023-12-07T11:04:27;6.40;;;4.60;;
12135;SDS011;6131;56.420;15.548;2023-12-07T11:06:54;6.03;;;4.27;;
12135;SDS011;6131;56.420;15.548;2023-12-07T11:09:24;7.30;;;4.80;;
12135;SDS011;6131;56.420;15.548;2023-12-07T11:11:55;6.07;;;4.67;;
12135;SDS011;6131;56.420;15.548;2023-12-07T11:14:23;6.00;;;4.50;;
12135;SDS011;6131;56.420;15.548;2023-12-07T11:16:50;5.87;;;4.50;;
12135;SDS011;6131;56.420;15.548;2023-12-07T11:22:09;5.80;;;4.60;;
12135;SDS011;6131;56.420;15.548;2023-12-07T11:24:36;6.53;;;5.10;;
12135;SDS011;6131;56.420;15.548;2023-12-07T11:27:02;6.30;;;4.90;;
12135;SDS011;6131;56.420;15.548;2023-12-07T11:29:28;6.17;;;4.67;;
12135;SDS011;6131;56.420;15.548;2023-12-07T11:32:01;7.30;;;4.83;;
12135;SDS011;6131;56.420;15.548;2023-12-07T11:34:38;7.07;;;4.77;;
12135;SDS011;6131;56.420;15.548;2023-12-07T11:37:10;8.73;;;4.80;;
12135;SDS011;6131;56.420;15.548;2023-12-07T11:39:37;66.33;;;43.20;;
12135;SDS011;6131;56.420;15.548;2023-12-07T11:42:16;30.07;;;23.00;;
12135;SDS011;6131;56.420;15.548;2023-12-07T11:44:42;10.77;;;9.67;;
12135;SDS011;6131;56.420;15.548;2023-12-07T11:47:15;12.67;;;10.60;;
12135;SDS011;6131;56.420;15.548;2023-12-07T11:49:41;8.23;;;6.50;;
12135;SDS011;6131;56.420;15.548;2023-12-07T11:52:19;8.37;;;6.10;;
12135;SDS011;6131;56.420;15.548;2023-12-07T11:54:46;7.63;;;6.00;;
12135;SDS011;6131;56.420;15.548;2023-12-07T11:57:15;8.13;;;6.10;;
12135;SDS011;6131;56.420;15.548;2023-12-07T11:59:42;7.63;;;5.67;;
12135;SDS011;6131;56.420;15.548;2023-12-07T12:02:12;6.23;;;4.97;;
12135;SDS011;6131;56.420;15.548;2023-12-07T12:04:38;7.37;;;5.47;;
12135;SDS011;6131;56.420;15.548;2023-12-07T12:07:05;7.17;;;5.40;;
12135;SDS011;6131;56.420;15.548;2023-12-07T12:09:32;5.70;;;4.57;;
12135;SDS011;6131;56.420;15.548;2023-12-07T12:11:59;7.87;;;5.83;;
12135;SDS011;6131;56.420;15.548;2023-12-07T12:14:25;9.13;;;5.80;;
12135;SDS011;6131;56.420;15.548;2023-12-07T12:16:52;7.00;;;5.40;;
12135;SDS011;6131;56.420;15.548;2023-12-07T12:19:18;8.20;;;6.27;;
12135;SDS011;6131;56.420;15.548;2023-12-07T12:21:44;7.30;;;5.43;;
12135;SDS011;6131;56.420;15.548;2023-12-07T12:24:10;6.57;;;5.17;;
12135;SDS011;6131;56.420;15.548;2023-12-07T12:26:37;9.20;;;6.83;;
12135;SDS011;6131;56.420;15.548;2023-12-07T12:29:04;8.23;;;5.83;;
12135;SDS011;6131;56.420;15.548;2023-12-07T12:31:31;9.63;;;6.63;;
12135;SDS011;6131;56.420;15.548;2023-12-07T12:33:57;12.27;;;7.77;;
12135;SDS011;6131;56.420;15.548;2023-12-07T12:36:25;7.90;;;5.63;;
12135;SDS011;6131;56.420;15.548;2023-12-07T12:38:53;10.50;;;7.70;;
12135;SDS011;6131;56.420;15.548;2023-12-07T12:41:19;8.93;;;7.03;;
12135;SDS011;6131;56.420;15.548;2023-12-07T12:43:45;9.30;;;7.00;;
12135;SDS011;6131;56.420;15.548;2023-12-07T12:46:15;10.47;;;7.17;;
12135;SDS011;6131;56.420;15.548;2023-12-07T12:49:00;10.77;;;7.10;;
12135;SDS011;6131;56.420;15.548;2023-12-07T12:51:27;10.30;;;6.80;;
12135;SDS011;6131;56.420;15.548;2023-12-07T12:53:54;12.03;;;8.37;;
12135;SDS011;6131;56.420;15.548;2023-12-07T12:56:21;11.83;;;8.43;;
12135;SDS011;6131;56.420;15.548;2023-12-07T12:58:48;11.93;;;8.93;;
12135;SDS011;6131;56.420;15.548;2023-12-07T13:01:15;12.47;;;8.53;;
12135;SDS011;6131;56.420;15.548;2023-12-07T13:03:42;11.67;;;7.90;;
12135;SDS011;6131;56.420;15.548;2023-12-07T13:06:10;14.07;;;8.23;;
12135;SDS011;6131;56.420;15.548;2023-12-07T13:08:36;11.30;;;8.37;;
12135;SDS011;6131;56.420;15.548;2023-12-07T13:11:02;13.53;;;8.83;;
12135;SDS011;6131;56.420;15.548;2023-12-07T13:13:28;14.70;;;9.70;;
12135;SDS011;6131;56.420;15.548;2023-12-07T13:15:54;13.37;;;8.77;;
12135;SDS011;6131;56.420;15.548;2023-12-07T13:18:20;12.37;;;9.23;;
12135;SDS011;6131;56.420;15.548;2023-12-07T13:20:46;12.80;;;9.40;;
12135;SDS011;6131;56.420;15.548;2023-12-07T13:23:13;11.80;;;8.57;;
12135;SDS011;6131;56.420;15.548;2023-12-07T13:25:39;14.27;;;9.40;;
12135;SDS011;6131;56.420;15.548;2023-12-07T13:28:06;12.80;;;9.00;;
12135;SDS011;6131;56.420;15.548;2023-12-07T13:30:33;14.30;;;9.50;;
12135;SDS011;6131;56.420;15.548;2023-12-07T13:33:00;16.07;;;10.07;;
12135;SDS011;6131;56.420;15.548;2023-12-07T13:35:28;15.20;;;9.20;;
12135;SDS011;6131;56.420;15.548;2023-12-07T13:37:55;15.03;;;9.70;;
12135;SDS011;6131;56.420;15.548;2023-12-07T13:40:21;15.07;;;10.27;;
12135;SDS011;6131;56.420;15.548;2023-12-07T13:42:47;16.40;;;10.13;;
12135;SDS011;6131;56.420;15.548;2023-12-07T13:45:13;15.33;;;10.03;;
12135;SDS011;6131;56.420;15.548;2023-12-07T13:47:39;15.00;;;9.90;;
12135;SDS011;6131;56.420;15.548;2023-12-07T13:50:05;16.33;;;10.47;;
12135;SDS011;6131;56.420;15.548;2023-12-07T13:52:31;18.23;;;11.40;;
12135;SDS011;6131;56.420;15.548;2023-12-07T13:54:57;15.77;;;10.43;;
12135;SDS011;6131;56.420;15.548;2023-12-07T13:57:24;18.83;;;11.83;;
12135;SDS011;6131;56.420;15.548;2023-12-07T13:59:50;18.80;;;12.10;;
12135;SDS011;6131;56.420;15.548;2023-12-07T14:02:17;16.53;;;10.80;;
12135;SDS011;6131;56.420;15.548;2023-12-07T14:04:43;18.10;;;11.03;;
12135;SDS011;6131;56.420;15.548;2023-12-07T14:07:13;21.47;;;13.53;;
12135;SDS011;6131;56.420;15.548;2023-12-07T14:09:43;20.23;;;13.50;;
12135;SDS011;6131;56.420;15.548;2023-12-07T14:12:09;19.87;;;13.00;;
12135;SDS011;6131;56.420;15.548;2023-12-07T14:14:42;20.73;;;13.60;;
12135;SDS011;6131;56.420;15.548;2023-12-07T14:17:09;19.47;;;12.43;;
12135;SDS011;6131;56.420;15.548;2023-12-07T14:19:35;20.77;;;11.83;;
12135;SDS011;6131;56.420;15.548;2023-12-07T14:22:01;21.77;;;13.13;;
12135;SDS011;6131;56.420;15.548;2023-12-07T14:24:27;23.33;;;13.60;;
12135;SDS011;6131;56.420;15.548;2023-12-07T14:26:55;23.67;;;12.67;;
12135;SDS011;6131;56.420;15.548;2023-12-07T14:29:21;22.83;;;13.50;;
12135;SDS011;6131;56.420;15.548;2023-12-07T14:31:49;24.93;;;14.07;;
12135;SDS011;6131;56.420;15.548;2023-12-07T14:34:16;26.50;;;14.20;;
12135;SDS011;6131;56.420;15.548;2023-12-07T14:36:42;25.80;;;15.40;;
12135;SDS011;6131;56.420;15.548;2023-12-07T14:39:09;26.83;;;14.87;;
12135;SDS011;6131;56.420;15.548;2023-12-07T14:41:35;28.57;;;15.00;;